createdAt,value
2022-10-05T00:00:56.822Z,7.85
2022-10-05T00:03:31.513Z,8.02
2022-10-05T00:05:57.947Z,7.57
2022-10-05T00:08:30.517Z,7.97
2022-10-05T00:10:56.860Z,8.07
2022-10-05T00:13:28.792Z,8.25
2022-10-05T00:16:04.686Z,8.15
2022-10-05T00:18:32.409Z,7.70
2022-10-05T00:20:59.518Z,8.65
2022-10-05T00:23:30.328Z,7.75
2022-10-05T00:26:11.724Z,7.35
2022-10-05T00:28:38.169Z,8.70
2022-10-05T00:31:15.002Z,7.28
2022-10-05T00:33:41.377Z,8.02
2022-10-05T00:36:07.896Z,9.05
2022-10-05T00:38:34.242Z,7.93
2022-10-05T00:41:06.980Z,7.53
2022-10-05T00:44:22.851Z,8.15
2022-10-05T00:46:55.031Z,7.55
2022-10-05T00:50:12.266Z,8.73
2022-10-05T00:53:06.069Z,8.25
2022-10-05T00:55:40.861Z,8.25
2022-10-05T00:58:25.327Z,7.93
2022-10-05T01:01:03.972Z,8.05
2022-10-05T01:04:00.979Z,8.32
2022-10-05T01:06:36.013Z,8.23
2022-10-05T01:09:12.943Z,8.13
2022-10-05T01:12:01.440Z,9.15
2022-10-05T01:14:46.402Z,8.23
2022-10-05T01:17:23.719Z,7.85
2022-10-05T01:20:14.191Z,8.05
2022-10-05T01:23:03.279Z,8.10
2022-10-05T01:25:48.421Z,7.82
2022-10-05T01:28:19.685Z,8.57
2022-10-05T01:31:02.110Z,8.57
2022-10-05T01:33:35.808Z,8.48
2022-10-05T01:36:21.506Z,9.15
2022-10-05T01:39:07.228Z,9.90
2022-10-05T01:42:02.673Z,10.02
2022-10-05T01:44:36.977Z,10.30
2022-10-05T01:47:21.820Z,8.80
2022-10-05T01:50:02.334Z,10.35
2022-10-05T01:52:56.064Z,9.52
2022-10-05T01:55:48.839Z,9.35
2022-10-05T01:58:41.449Z,9.48
2022-10-05T02:01:27.565Z,9.57
2022-10-05T02:04:10.441Z,10.40
2022-10-05T02:06:41.328Z,9.77
2022-10-05T02:09:15.010Z,10.52
2022-10-05T02:11:47.902Z,9.15
2022-10-05T02:14:22.483Z,9.40
2022-10-05T02:16:51.257Z,10.38
2022-10-05T02:19:36.089Z,9.05
2022-10-05T02:22:07.305Z,10.25
2022-10-05T02:24:46.001Z,9.18
2022-10-05T02:27:17.316Z,10.00
2022-10-05T02:29:47.963Z,9.43
2022-10-05T02:32:21.530Z,8.57
2022-10-05T02:34:47.942Z,9.10
2022-10-05T02:37:20.117Z,8.95
2022-10-05T02:40:38.852Z,9.25
2022-10-05T02:43:13.853Z,8.40
2022-10-05T02:46:03.578Z,10.70
2022-10-05T02:49:00.324Z,10.93
2022-10-05T02:51:36.319Z,9.38
2022-10-05T02:54:25.357Z,9.75
2022-10-05T02:57:10.889Z,10.60
2022-10-05T02:59:51.747Z,9.57
2022-10-05T03:02:23.312Z,8.80
2022-10-05T03:04:55.820Z,9.10
2022-10-05T03:07:50.329Z,9.30
2022-10-05T03:10:28.663Z,9.55
2022-10-05T03:13:21.959Z,9.55
2022-10-05T03:15:54.568Z,10.95
2022-10-05T03:18:39.133Z,9.77
2022-10-05T03:21:33.658Z,9.85
2022-10-05T03:24:18.079Z,10.05
2022-10-05T03:27:03.071Z,9.40
2022-10-05T03:29:35.719Z,9.27
2022-10-05T03:32:18.079Z,10.02
2022-10-05T03:34:50.437Z,9.88
2022-10-05T03:37:26.291Z,9.95
2022-10-05T03:40:28.267Z,10.05
2022-10-05T03:43:11.821Z,10.40
2022-10-05T03:46:08.561Z,10.75
2022-10-05T03:49:05.739Z,10.20
2022-10-05T03:51:39.546Z,10.45
2022-10-05T03:54:15.229Z,10.05
2022-10-05T03:56:50.475Z,11.32
2022-10-05T03:59:34.571Z,11.27
2022-10-05T04:02:05.107Z,10.23
2022-10-05T04:04:46.854Z,10.98
2022-10-05T04:07:32.005Z,10.75
2022-10-05T04:10:00.611Z,10.80
2022-10-05T04:12:37.017Z,11.38
2022-10-05T04:15:18.716Z,10.18
2022-10-05T04:18:05.418Z,10.73
2022-10-05T04:20:39.783Z,10.82
2022-10-05T04:23:21.390Z,10.10
2022-10-05T04:25:56.719Z,9.93
2022-10-05T04:28:38.158Z,10.77
2022-10-05T04:31:06.812Z,10.48
2022-10-05T04:33:33.177Z,10.27
2022-10-05T04:36:02.254Z,9.25
2022-10-05T04:38:47.693Z,10.32
2022-10-05T04:41:32.829Z,9.48
2022-10-05T04:44:17.640Z,9.93
2022-10-05T04:47:12.161Z,9.30
2022-10-05T04:50:06.502Z,9.57
2022-10-05T04:53:01.983Z,9.20
2022-10-05T04:55:36.137Z,10.25
2022-10-05T04:58:17.273Z,9.93
2022-10-05T05:01:12.750Z,10.18
2022-10-05T05:04:17.651Z,9.88
2022-10-05T05:07:02.859Z,10.02
2022-10-05T05:09:47.886Z,9.70
2022-10-05T05:12:45.390Z,11.00
2022-10-05T05:15:47.087Z,11.40
2022-10-05T05:18:35.226Z,10.23
2022-10-05T05:21:20.152Z,10.48
2022-10-05T05:23:53.111Z,10.02
2022-10-05T05:26:49.877Z,10.48
2022-10-05T05:29:40.470Z,9.80
2022-10-05T05:32:22.025Z,10.05
2022-10-05T05:35:24.889Z,9.88
2022-10-05T05:37:57.822Z,11.65
2022-10-05T05:40:40.070Z,10.52
2022-10-05T05:43:30.808Z,10.77
2022-10-05T05:46:05.787Z,10.20
2022-10-05T05:48:40.064Z,9.15
2022-10-05T05:51:18.430Z,11.13
2022-10-05T05:53:48.809Z,10.77
2022-10-05T05:56:20.495Z,10.77
2022-10-05T05:58:54.405Z,10.93
2022-10-05T06:01:33.372Z,9.98
2022-10-05T06:04:09.014Z,10.98
2022-10-05T06:06:40.995Z,9.02
2022-10-05T06:09:30.894Z,10.20
2022-10-05T06:12:03.388Z,9.35
2022-10-05T06:14:37.250Z,10.27
2022-10-05T06:17:16.457Z,9.73
2022-10-05T06:19:44.621Z,8.75
2022-10-05T06:22:35.975Z,9.38
2022-10-05T06:25:22.591Z,9.57
2022-10-05T06:28:18.355Z,9.20
2022-10-05T06:31:04.222Z,8.38
2022-10-05T06:34:05.725Z,8.73
2022-10-05T06:36:52.701Z,8.63
2022-10-05T06:39:39.133Z,8.95
2022-10-05T06:42:14.249Z,8.75
2022-10-05T06:44:49.162Z,9.15
2022-10-05T06:49:56.077Z,8.60
2022-10-05T06:52:31.283Z,8.82
2022-10-05T06:55:14.358Z,8.68
2022-10-05T06:57:45.498Z,8.68
2022-10-05T07:00:20.918Z,9.07
2022-10-05T07:02:53.256Z,8.98
2022-10-05T07:05:42.683Z,8.32
2022-10-05T07:08:23.793Z,9.05
2022-10-05T07:10:58.547Z,7.90
2022-10-05T07:13:54.610Z,8.57
2022-10-05T07:16:48.808Z,8.30
2022-10-05T07:19:45.987Z,8.90
2022-10-05T07:22:34.472Z,8.98
2022-10-05T07:25:13.171Z,7.85
2022-10-05T07:28:03.399Z,8.52
2022-10-05T07:30:37.122Z,8.52
2022-10-05T07:33:13.429Z,7.95
2022-10-05T07:35:44.384Z,8.40
2022-10-05T07:38:24.966Z,8.15
2022-10-05T07:41:04.617Z,8.65
2022-10-05T07:44:00.465Z,8.00
2022-10-05T07:46:35.486Z,7.60
2022-10-05T07:49:10.643Z,7.47
2022-10-05T07:51:40.707Z,7.97
2022-10-05T07:54:15.631Z,7.20
2022-10-05T07:59:32.448Z,7.75
2022-10-05T08:02:32.197Z,7.13
2022-10-05T08:05:05.041Z,7.05
2022-10-05T08:07:34.711Z,7.50
2022-10-05T08:10:35.915Z,6.78
2022-10-05T08:13:31.387Z,8.05
2022-10-05T08:16:01.527Z,7.32
2022-10-05T08:18:53.527Z,7.00
2022-10-05T08:21:26.533Z,7.18
2022-10-05T08:24:30.325Z,6.95
2022-10-05T08:27:06.270Z,7.32
2022-10-05T08:29:41.753Z,7.07
2022-10-05T08:32:18.642Z,7.03
2022-10-05T08:34:57.126Z,6.85
2022-10-05T08:37:30.419Z,7.20
2022-10-05T08:40:22.297Z,7.25
2022-10-05T08:43:35.012Z,7.40
2022-10-05T08:46:32.355Z,7.10
2022-10-05T08:49:16.962Z,6.45
2022-10-05T08:51:57.034Z,7.10
2022-10-05T08:54:51.677Z,5.97
2022-10-05T08:57:56.327Z,6.33
2022-10-05T09:00:24.665Z,6.30
2022-10-05T09:03:12.715Z,6.75
2022-10-05T09:06:00.393Z,7.03
2022-10-05T09:08:58.315Z,6.95
2022-10-05T09:11:30.766Z,6.13
2022-10-05T09:14:21.904Z,6.55
2022-10-05T09:17:14.486Z,6.07
2022-10-05T09:19:52.322Z,5.60
2022-10-05T09:22:30.805Z,5.53
2022-10-05T09:25:17.296Z,5.88
2022-10-05T09:28:24.070Z,5.47
2022-10-05T09:30:58.078Z,5.85
2022-10-05T09:33:42.440Z,5.70
2022-10-05T09:36:28.290Z,6.17
2022-10-05T09:39:34.512Z,6.22
2022-10-05T09:42:18.412Z,5.35
2022-10-05T09:45:11.574Z,4.80
2022-10-05T09:48:05.801Z,5.60
2022-10-05T09:50:38.029Z,5.43
2022-10-05T09:53:10.751Z,5.30
2022-10-05T09:55:47.595Z,5.45
2022-10-05T09:58:41.567Z,5.35
2022-10-05T10:01:44.904Z,5.22
2022-10-05T10:04:41.852Z,5.13
2022-10-05T10:07:16.988Z,4.70
2022-10-05T10:10:04.560Z,5.32
2022-10-05T10:12:46.754Z,5.00
2022-10-05T10:15:38.475Z,4.82
2022-10-05T10:18:27.964Z,5.38
2022-10-05T10:21:09.494Z,5.40
2022-10-05T10:23:56.890Z,5.00
2022-10-05T10:26:47.727Z,4.82
2022-10-05T10:29:33.564Z,5.05
2022-10-05T10:32:37.550Z,4.97
2022-10-05T10:38:38.244Z,4.50
2022-10-05T10:41:32.338Z,4.75
2022-10-05T10:44:13.642Z,4.45
2022-10-05T10:47:18.994Z,5.15
2022-10-05T10:50:23.050Z,4.45
2022-10-05T10:53:12.492Z,4.30
2022-10-05T10:56:00.434Z,4.63
2022-10-05T10:59:12.685Z,4.90
2022-10-05T11:02:02.049Z,4.28
2022-10-05T11:04:58.108Z,4.75
2022-10-05T11:07:36.265Z,4.63
2022-10-05T11:10:08.612Z,4.60
2022-10-05T11:13:09.131Z,4.20
2022-10-05T11:15:54.335Z,4.10
2022-10-05T11:18:47.886Z,4.00
2022-10-05T11:21:26.233Z,4.70
2022-10-05T11:24:13.391Z,4.13
2022-10-05T11:26:39.665Z,4.00
2022-10-05T11:29:39.655Z,4.53
2022-10-05T11:32:32.538Z,4.53
2022-10-05T11:35:36.383Z,4.47
2022-10-05T11:38:38.328Z,4.30
2022-10-05T11:41:26.023Z,4.22
2022-10-05T11:44:06.356Z,4.43
2022-10-05T11:46:52.358Z,3.95
2022-10-05T11:49:46.820Z,3.80
2022-10-05T11:52:18.034Z,3.88
2022-10-05T11:55:09.340Z,4.35
2022-10-05T11:57:39.981Z,3.78
2022-10-05T12:00:16.004Z,3.90
2022-10-05T12:03:23.648Z,3.90
2022-10-05T12:06:04.337Z,3.85
2022-10-05T12:08:43.715Z,3.83
2022-10-05T12:11:31.214Z,3.53
2022-10-05T12:14:05.027Z,3.70
2022-10-05T12:16:46.438Z,3.90
2022-10-05T12:19:24.206Z,3.13
2022-10-05T12:21:56.060Z,2.88
2022-10-05T12:24:54.388Z,3.42
2022-10-05T12:27:25.039Z,3.00
2022-10-05T12:30:02.384Z,3.10
2022-10-05T12:33:13.376Z,2.65
2022-10-05T12:35:52.334Z,2.83
2022-10-05T12:38:34.164Z,2.72
2022-10-05T12:41:03.135Z,2.60
2022-10-05T12:43:35.342Z,2.97
2022-10-05T12:46:17.594Z,2.25
2022-10-05T12:48:57.677Z,2.70
2022-10-05T12:51:29.751Z,2.38
2022-10-05T12:54:23.911Z,2.17
2022-10-05T12:57:05.545Z,4.00
2022-10-05T12:59:44.387Z,2.53
2022-10-05T13:02:35.680Z,2.20
2022-10-05T13:05:11.212Z,2.10
2022-10-05T13:08:04.591Z,2.40
2022-10-05T13:10:48.069Z,1.95
2022-10-05T13:13:38.506Z,2.17
2022-10-05T13:16:17.052Z,2.08
2022-10-05T13:19:13.109Z,2.30
2022-10-05T13:21:55.237Z,2.15
2022-10-05T13:24:43.724Z,2.10
2022-10-05T13:27:31.599Z,2.22
2022-10-05T13:30:06.210Z,2.40
2022-10-05T13:32:41.527Z,2.42
2022-10-05T13:35:38.711Z,2.20
2022-10-05T13:38:31.127Z,2.08
2022-10-05T13:41:14.687Z,2.40
2022-10-05T13:43:52.979Z,2.13
2022-10-05T13:46:40.571Z,2.45
2022-10-05T13:49:33.720Z,2.05
2022-10-05T13:52:19.923Z,2.58
2022-10-05T13:54:58.231Z,2.28
2022-10-05T13:57:43.267Z,2.00
2022-10-05T14:00:22.699Z,2.10
2022-10-05T14:02:55.447Z,2.08
2022-10-05T14:05:24.433Z,2.00
2022-10-05T14:07:52.573Z,2.03
2022-10-05T14:10:36.491Z,1.67
2022-10-05T14:13:19.504Z,1.60
2022-10-05T14:16:20.037Z,1.58
2022-10-05T14:19:17.661Z,2.50
2022-10-05T14:22:12.455Z,1.58
2022-10-05T14:24:51.714Z,2.00
2022-10-05T14:27:57.148Z,2.00
2022-10-05T14:30:29.631Z,2.15
2022-10-05T14:33:08.439Z,1.98
2022-10-05T14:35:47.328Z,1.80
2022-10-05T14:38:18.328Z,2.00
2022-10-05T14:40:44.733Z,2.10
2022-10-05T14:43:14.008Z,1.92
2022-10-05T14:45:54.917Z,1.90
2022-10-05T14:48:21.674Z,1.90
2022-10-05T14:50:54.005Z,1.92
2022-10-05T14:53:23.038Z,2.20
2022-10-05T14:56:08.198Z,2.03
2022-10-05T15:01:29.436Z,1.95
2022-10-05T15:04:14.332Z,1.75
2022-10-05T15:06:59.504Z,2.00
2022-10-05T15:09:55.617Z,1.67
2022-10-05T15:12:31.818Z,1.60
2022-10-05T15:15:39.850Z,1.80
2022-10-05T15:18:14.689Z,1.58
2022-10-05T15:23:28.278Z,1.52
2022-10-05T15:26:20.850Z,2.10
2022-10-05T15:29:00.008Z,1.88
2022-10-05T15:31:29.252Z,1.80
2022-10-05T15:34:04.855Z,2.35
2022-10-05T15:36:36.927Z,2.00
2022-10-05T15:39:18.914Z,2.08
2022-10-05T15:42:05.008Z,1.73
2022-10-05T15:45:05.554Z,2.17
2022-10-05T15:48:18.262Z,1.80
2022-10-05T15:51:14.584Z,1.80
2022-10-05T15:53:48.469Z,2.00
2022-10-05T15:56:30.063Z,1.83
2022-10-05T15:59:21.888Z,2.17
2022-10-05T16:01:54.447Z,1.80
2022-10-05T16:04:43.566Z,1.98
2022-10-05T16:07:20.384Z,1.85
2022-10-05T16:10:14.438Z,1.83
2022-10-05T16:13:12.206Z,1.70
2022-10-05T16:15:48.456Z,2.17
2022-10-05T16:18:44.291Z,2.05
2022-10-05T16:21:32.603Z,1.80
2022-10-05T16:24:05.766Z,2.10
2022-10-05T16:27:03.605Z,1.90
2022-10-05T16:29:47.064Z,1.42
2022-10-05T16:32:24.143Z,1.90
2022-10-05T16:34:57.578Z,2.00
2022-10-05T16:37:44.972Z,1.60
2022-10-05T16:40:28.727Z,1.80
2022-10-05T16:43:05.707Z,2.15
2022-10-05T16:45:48.087Z,2.42
2022-10-05T16:48:31.716Z,1.70
2022-10-05T16:51:06.391Z,1.83
2022-10-05T16:53:46.266Z,2.55
2022-10-05T16:56:19.887Z,2.00
2022-10-05T16:59:11.927Z,1.80
2022-10-05T17:02:24.909Z,1.60
2022-10-05T17:05:20.494Z,1.77
2022-10-05T17:10:46.694Z,1.67
2022-10-05T17:13:43.404Z,1.50
2022-10-05T17:16:19.713Z,1.92
2022-10-05T17:19:09.993Z,1.50
2022-10-05T17:21:49.834Z,1.60
2022-10-05T17:24:42.638Z,1.70
2022-10-05T17:27:39.483Z,1.50
2022-10-05T17:30:26.795Z,2.17
2022-10-05T17:33:14.325Z,1.55
2022-10-05T17:35:42.496Z,1.50
2022-10-05T17:38:16.093Z,1.83
2022-10-05T17:41:17.509Z,1.73
2022-10-05T17:44:16.028Z,1.67
2022-10-05T17:46:50.423Z,1.92
2022-10-05T17:49:25.878Z,1.90
2022-10-05T17:51:52.159Z,1.58
2022-10-05T17:54:29.512Z,2.00
2022-10-05T17:56:55.802Z,2.42
2022-10-05T17:59:42.886Z,2.35
2022-10-05T18:02:36.901Z,2.22
2022-10-05T18:05:03.532Z,2.03
2022-10-05T18:07:32.207Z,2.33
2022-10-05T18:10:21.974Z,2.15
2022-10-05T18:13:33.721Z,2.17
2022-10-05T18:16:00.264Z,2.15
2022-10-05T18:18:43.072Z,1.98
2022-10-05T18:21:15.505Z,2.00
2022-10-05T18:23:54.046Z,2.20
2022-10-05T18:26:41.588Z,2.45
2022-10-05T18:29:34.456Z,2.00
2022-10-05T18:32:07.892Z,1.92
2022-10-05T18:34:45.349Z,2.58
2022-10-05T18:37:47.380Z,2.70
2022-10-05T18:40:31.711Z,2.45
2022-10-05T18:43:04.376Z,2.20
2022-10-05T18:45:45.755Z,2.28
2022-10-05T18:48:30.893Z,2.65
2022-10-05T18:53:42.271Z,2.78
2022-10-05T18:56:28.319Z,2.92
2022-10-05T18:59:03.435Z,2.70
2022-10-05T19:01:56.273Z,2.38
2022-10-05T19:04:29.243Z,2.58
2022-10-05T19:07:03.356Z,2.90
2022-10-05T19:09:53.227Z,2.42
2022-10-05T19:12:44.983Z,2.70
2022-10-05T19:15:31.027Z,3.95
2022-10-05T19:18:22.276Z,2.88
2022-10-05T19:21:07.947Z,3.25
2022-10-05T19:23:44.087Z,6.50
2022-10-05T19:26:19.713Z,9.02
2022-10-05T19:29:25.051Z,3.28
2022-10-05T19:32:02.327Z,3.50
2022-10-05T19:34:48.593Z,3.05
2022-10-05T19:37:29.028Z,3.30
2022-10-05T19:40:20.133Z,2.55
2022-10-05T19:43:07.443Z,2.33
2022-10-05T19:45:40.890Z,2.78
2022-10-05T19:48:39.719Z,2.60
2022-10-05T19:51:13.706Z,2.20
2022-10-05T19:53:45.603Z,4.75
2022-10-05T19:56:20.887Z,2.30
2022-10-05T19:58:49.554Z,2.20
2022-10-05T20:01:25.717Z,1.88
2022-10-05T20:03:53.344Z,2.40
2022-10-05T20:06:21.071Z,2.25
2022-10-05T20:08:49.794Z,2.08
2022-10-05T20:11:21.984Z,2.28
2022-10-05T20:13:54.057Z,1.83
2022-10-05T20:16:33.426Z,2.40
2022-10-05T20:18:59.871Z,1.77
2022-10-05T20:21:41.612Z,1.92
2022-10-05T20:24:12.858Z,1.98
2022-10-05T20:26:49.325Z,1.85
2022-10-05T20:29:15.656Z,2.40
2022-10-05T20:31:42.026Z,1.88
2022-10-05T20:34:08.326Z,2.33
2022-10-05T20:36:34.656Z,2.17
2022-10-05T20:39:00.982Z,2.03
2022-10-05T20:41:27.277Z,2.67
2022-10-05T20:43:55.823Z,2.50
2022-10-05T20:46:22.359Z,2.03
2022-10-05T20:48:48.709Z,2.08
2022-10-05T20:51:15.014Z,2.17
2022-10-05T20:53:41.340Z,1.90
2022-10-05T20:56:07.664Z,1.92
2022-10-05T20:58:34.000Z,1.98
2022-10-05T21:01:00.322Z,2.33
2022-10-05T21:03:26.666Z,2.53
2022-10-05T21:05:52.981Z,2.13
2022-10-05T21:08:19.310Z,1.80
2022-10-05T21:10:45.640Z,2.15
2022-10-05T21:13:11.944Z,2.25
2022-10-05T21:15:38.276Z,1.55
2022-10-05T21:18:04.657Z,2.50
2022-10-05T21:20:30.983Z,1.83
2022-10-05T21:22:57.308Z,2.38
2022-10-05T21:25:23.648Z,2.00
2022-10-05T21:27:49.984Z,2.13
2022-10-05T21:30:16.284Z,1.83
2022-10-05T21:32:44.705Z,1.83
2022-10-05T21:35:11.333Z,2.33
2022-10-05T21:37:37.653Z,1.98
2022-10-05T21:40:04.520Z,1.98
2022-10-05T21:42:31.196Z,2.25
2022-10-05T21:44:57.549Z,2.00
2022-10-05T21:47:23.908Z,2.00
2022-10-05T21:49:50.272Z,1.80
2022-10-05T21:52:16.629Z,2.03
2022-10-05T21:54:43.024Z,1.90
2022-10-05T21:57:12.073Z,2.00
2022-10-05T21:59:39.401Z,1.85
2022-10-05T22:02:05.919Z,1.70
2022-10-05T22:04:32.218Z,2.10
2022-10-05T22:06:58.555Z,2.20
2022-10-05T22:09:24.965Z,2.08
2022-10-05T22:11:51.366Z,2.05
2022-10-05T22:14:17.798Z,2.47
2022-10-05T22:16:44.542Z,1.92
2022-10-05T22:19:17.941Z,2.15
2022-10-05T22:21:44.367Z,2.13
2022-10-05T22:24:10.772Z,2.20
2022-10-05T22:26:37.653Z,2.13
2022-10-05T22:29:04.106Z,2.42
2022-10-05T22:31:30.470Z,2.05
2022-10-05T22:33:56.855Z,1.77
2022-10-05T22:36:23.334Z,2.00
2022-10-05T22:38:49.659Z,1.85
2022-10-05T22:41:16.031Z,1.92
2022-10-05T22:43:42.359Z,2.00
2022-10-05T22:46:12.263Z,2.25
2022-10-05T22:48:39.398Z,2.17
2022-10-05T22:51:05.851Z,2.08
2022-10-05T22:53:32.251Z,2.03
2022-10-05T22:56:07.615Z,2.05
2022-10-05T22:58:33.938Z,2.40
2022-10-05T23:01:05.055Z,2.33
2022-10-05T23:03:32.609Z,2.28
2022-10-05T23:06:04.503Z,1.80
2022-10-05T23:08:32.389Z,2.38
2022-10-05T23:11:19.622Z,2.20
2022-10-05T23:13:45.951Z,2.05
2022-10-05T23:16:18.101Z,2.22
2022-10-05T23:18:47.162Z,2.00
2022-10-05T23:21:13.526Z,2.20
2022-10-05T23:23:41.891Z,2.20
2022-10-05T23:26:10.159Z,1.90
2022-10-05T23:28:39.347Z,1.52
2022-10-05T23:31:07.189Z,0.80
2022-10-05T23:33:34.153Z,0.80
2022-10-05T23:36:21.258Z,0.65
2022-10-05T23:38:48.219Z,0.90
2022-10-05T23:41:15.468Z,0.65
2022-10-05T23:43:42.690Z,0.32
2022-10-05T23:46:09.876Z,0.73
2022-10-05T23:48:37.018Z,0.70
2022-10-05T23:51:04.740Z,0.60
2022-10-05T23:53:31.095Z,0.70
2022-10-05T23:55:57.435Z,0.60
2022-10-05T23:58:24.279Z,0.88
